sensor_id;sensor_type;location;lat;lon;timestamp;P1;durP1;ratioP1;P2;durP2;ratioP2
43226;SDS011;28839;52.404;9.808;2024-01-27T00:04:58;22.17;;;3.80;;
43226;SDS011;28839;52.404;9.808;2024-01-27T00:11:53;26.92;;;4.30;;
43226;SDS011;28839;52.404;9.808;2024-01-27T00:18:47;13.48;;;2.72;;
43226;SDS011;28839;52.404;9.808;2024-01-27T00:25:40;20.00;;;3.00;;
43226;SDS011;28839;52.404;9.808;2024-01-27T00:32:35;21.45;;;3.28;;
43226;SDS011;28839;52.404;9.808;2024-01-27T00:39:31;18.10;;;3.47;;
43226;SDS011;28839;52.404;9.808;2024-01-27T00:46:25;16.92;;;3.67;;
43226;SDS011;28839;52.404;9.808;2024-01-27T00:53:20;26.80;;;4.12;;
43226;SDS011;28839;52.404;9.808;2024-01-27T01:00:14;21.23;;;3.97;;
43226;SDS011;28839;52.404;9.808;2024-01-27T01:07:08;25.83;;;5.12;;
43226;SDS011;28839;52.404;9.808;2024-01-27T01:14:03;23.15;;;4.75;;
43226;SDS011;28839;52.404;9.808;2024-01-27T01:20:57;18.33;;;3.08;;
43226;SDS011;28839;52.404;9.808;2024-01-27T01:27:51;24.45;;;4.03;;
43226;SDS011;28839;52.404;9.808;2024-01-27T01:34:47;19.73;;;3.20;;
43226;SDS011;28839;52.404;9.808;2024-01-27T01:41:41;18.60;;;3.65;;
43226;SDS011;28839;52.404;9.808;2024-01-27T01:48:35;20.25;;;3.40;;
43226;SDS011;28839;52.404;9.808;2024-01-27T01:55:30;19.55;;;3.33;;
43226;SDS011;28839;52.404;9.808;2024-01-27T02:02:24;15.75;;;2.72;;
43226;SDS011;28839;52.404;9.808;2024-01-27T02:09:18;28.83;;;4.28;;
43226;SDS011;28839;52.404;9.808;2024-01-27T02:16:13;22.60;;;4.45;;
43226;SDS011;28839;52.404;9.808;2024-01-27T02:23:09;27.27;;;3.17;;
43226;SDS011;28839;52.404;9.808;2024-01-27T02:30:05;18.75;;;3.45;;
43226;SDS011;28839;52.404;9.808;2024-01-27T02:37:00;27.60;;;3.58;;
43226;SDS011;28839;52.404;9.808;2024-01-27T02:43:53;20.10;;;3.33;;
43226;SDS011;28839;52.404;9.808;2024-01-27T02:50:48;21.65;;;2.85;;
43226;SDS011;28839;52.404;9.808;2024-01-27T02:57:42;21.70;;;3.92;;
43226;SDS011;28839;52.404;9.808;2024-01-27T03:04:36;30.12;;;4.15;;
43226;SDS011;28839;52.404;9.808;2024-01-27T03:11:31;16.95;;;2.65;;
43226;SDS011;28839;52.404;9.808;2024-01-27T03:18:25;15.57;;;2.75;;
43226;SDS011;28839;52.404;9.808;2024-01-27T03:25:19;19.50;;;3.42;;
43226;SDS011;28839;52.404;9.808;2024-01-27T03:32:14;25.23;;;3.15;;
43226;SDS011;28839;52.404;9.808;2024-01-27T03:39:07;29.63;;;7.05;;
43226;SDS011;28839;52.404;9.808;2024-01-27T03:46:01;28.58;;;5.07;;
43226;SDS011;28839;52.404;9.808;2024-01-27T03:52:56;30.10;;;4.45;;
43226;SDS011;28839;52.404;9.808;2024-01-27T03:59:50;16.12;;;3.47;;
43226;SDS011;28839;52.404;9.808;2024-01-27T04:06:44;21.23;;;3.15;;
43226;SDS011;28839;52.404;9.808;2024-01-27T04:13:39;18.27;;;4.20;;
43226;SDS011;28839;52.404;9.808;2024-01-27T04:20:33;24.05;;;5.03;;
43226;SDS011;28839;52.404;9.808;2024-01-27T04:27:26;18.98;;;3.75;;
43226;SDS011;28839;52.404;9.808;2024-01-27T04:34:22;18.10;;;3.78;;
43226;SDS011;28839;52.404;9.808;2024-01-27T04:41:15;17.70;;;3.65;;
43226;SDS011;28839;52.404;9.808;2024-01-27T04:48:09;22.37;;;3.47;;
43226;SDS011;28839;52.404;9.808;2024-01-27T04:55:05;13.70;;;3.35;;
43226;SDS011;28839;52.404;9.808;2024-01-27T05:01:59;15.20;;;3.30;;
43226;SDS011;28839;52.404;9.808;2024-01-27T05:08:53;15.48;;;3.50;;
43226;SDS011;28839;52.404;9.808;2024-01-27T05:15:48;18.45;;;3.28;;
43226;SDS011;28839;52.404;9.808;2024-01-27T05:22:42;28.00;;;4.28;;
43226;SDS011;28839;52.404;9.808;2024-01-27T05:29:36;25.63;;;3.50;;
43226;SDS011;28839;52.404;9.808;2024-01-27T05:36:31;9.20;;;2.43;;
43226;SDS011;28839;52.404;9.808;2024-01-27T05:43:25;26.73;;;4.15;;
43226;SDS011;28839;52.404;9.808;2024-01-27T05:50:19;22.83;;;3.73;;
43226;SDS011;28839;52.404;9.808;2024-01-27T05:57:14;15.73;;;3.30;;
43226;SDS011;28839;52.404;9.808;2024-01-27T06:04:08;17.48;;;3.90;;
43226;SDS011;28839;52.404;9.808;2024-01-27T06:11:02;25.12;;;4.43;;
43226;SDS011;28839;52.404;9.808;2024-01-27T06:17:57;22.13;;;3.27;;
43226;SDS011;28839;52.404;9.808;2024-01-27T06:24:51;24.25;;;4.40;;
43226;SDS011;28839;52.404;9.808;2024-01-27T06:31:45;19.33;;;3.55;;
43226;SDS011;28839;52.404;9.808;2024-01-27T06:38:40;29.02;;;4.62;;
43226;SDS011;28839;52.404;9.808;2024-01-27T06:45:34;19.65;;;3.45;;
43226;SDS011;28839;52.404;9.808;2024-01-27T06:52:28;22.83;;;3.35;;
43226;SDS011;28839;52.404;9.808;2024-01-27T06:59:23;16.15;;;3.33;;
43226;SDS011;28839;52.404;9.808;2024-01-27T07:06:17;25.50;;;5.55;;
43226;SDS011;28839;52.404;9.808;2024-01-27T07:13:10;14.38;;;3.35;;
43226;SDS011;28839;52.404;9.808;2024-01-27T07:20:07;18.42;;;4.35;;
43226;SDS011;28839;52.404;9.808;2024-01-27T07:27:02;14.13;;;2.85;;
43226;SDS011;28839;52.404;9.808;2024-01-27T07:33:56;17.07;;;3.60;;
43226;SDS011;28839;52.404;9.808;2024-01-27T07:40:51;16.27;;;3.97;;
43226;SDS011;28839;52.404;9.808;2024-01-27T07:47:45;19.50;;;4.22;;
43226;SDS011;28839;52.404;9.808;2024-01-27T07:54:39;15.23;;;3.53;;
43226;SDS011;28839;52.404;9.808;2024-01-27T08:01:34;23.62;;;5.28;;
43226;SDS011;28839;52.404;9.808;2024-01-27T08:08:27;14.65;;;3.28;;
43226;SDS011;28839;52.404;9.808;2024-01-27T08:15:22;20.10;;;4.37;;
43226;SDS011;28839;52.404;9.808;2024-01-27T08:22:17;16.40;;;3.30;;
43226;SDS011;28839;52.404;9.808;2024-01-27T08:29:11;16.08;;;3.45;;
43226;SDS011;28839;52.404;9.808;2024-01-27T08:36:04;20.12;;;3.25;;
43226;SDS011;28839;52.404;9.808;2024-01-27T08:43:00;16.57;;;3.77;;
43226;SDS011;28839;52.404;9.808;2024-01-27T08:49:54;14.57;;;3.72;;
43226;SDS011;28839;52.404;9.808;2024-01-27T08:56:48;12.25;;;3.45;;
43226;SDS011;28839;52.404;9.808;2024-01-27T09:03:43;18.73;;;3.90;;
43226;SDS011;28839;52.404;9.808;2024-01-27T09:10:38;16.17;;;5.15;;
43226;SDS011;28839;52.404;9.808;2024-01-27T09:17:32;22.92;;;4.37;;
43226;SDS011;28839;52.404;9.808;2024-01-27T09:24:27;14.77;;;4.05;;
43226;SDS011;28839;52.404;9.808;2024-01-27T09:38:15;20.45;;;4.60;;
43226;SDS011;28839;52.404;9.808;2024-01-27T09:45:10;14.70;;;4.37;;
43226;SDS011;28839;52.404;9.808;2024-01-27T09:52:05;16.80;;;3.58;;
43226;SDS011;28839;52.404;9.808;2024-01-27T09:59:00;19.42;;;4.15;;
43226;SDS011;28839;52.404;9.808;2024-01-27T10:05:56;13.45;;;3.55;;
43226;SDS011;28839;52.404;9.808;2024-01-27T10:12:50;18.12;;;4.80;;
43226;SDS011;28839;52.404;9.808;2024-01-27T10:19:46;16.10;;;5.43;;
43226;SDS011;28839;52.404;9.808;2024-01-27T10:26:41;16.83;;;4.80;;
43226;SDS011;28839;52.404;9.808;2024-01-27T10:33:35;21.87;;;5.15;;
43226;SDS011;28839;52.404;9.808;2024-01-27T10:40:29;14.52;;;5.47;;
43226;SDS011;28839;52.404;9.808;2024-01-27T10:47:24;19.83;;;6.80;;
43226;SDS011;28839;52.404;9.808;2024-01-27T10:54:22;19.95;;;5.82;;
43226;SDS011;28839;52.404;9.808;2024-01-27T11:01:17;19.00;;;5.95;;
43226;SDS011;28839;52.404;9.808;2024-01-27T11:08:16;22.00;;;5.82;;
43226;SDS011;28839;52.404;9.808;2024-01-27T11:15:11;18.30;;;6.57;;
43226;SDS011;28839;52.404;9.808;2024-01-27T11:22:05;16.30;;;5.65;;
43226;SDS011;28839;52.404;9.808;2024-01-27T11:29:06;12.70;;;4.72;;
43226;SDS011;28839;52.404;9.808;2024-01-27T11:36:01;19.05;;;5.60;;
43226;SDS011;28839;52.404;9.808;2024-01-27T11:49:52;14.85;;;5.40;;
43226;SDS011;28839;52.404;9.808;2024-01-27T11:56:47;18.92;;;5.68;;
43226;SDS011;28839;52.404;9.808;2024-01-27T12:03:41;17.12;;;6.05;;
43226;SDS011;28839;52.404;9.808;2024-01-27T12:10:37;17.45;;;5.35;;
43226;SDS011;28839;52.404;9.808;2024-01-27T12:17:30;15.02;;;4.95;;
43226;SDS011;28839;52.404;9.808;2024-01-27T12:24:26;21.85;;;5.65;;
43226;SDS011;28839;52.404;9.808;2024-01-27T12:31:21;19.23;;;5.70;;
43226;SDS011;28839;52.404;9.808;2024-01-27T12:38:17;21.15;;;6.22;;
43226;SDS011;28839;52.404;9.808;2024-01-27T12:45:11;10.93;;;5.87;;
43226;SDS011;28839;52.404;9.808;2024-01-27T12:52:06;15.63;;;4.40;;
43226;SDS011;28839;52.404;9.808;2024-01-27T12:59:00;14.82;;;4.90;;
43226;SDS011;28839;52.404;9.808;2024-01-27T13:05:54;16.20;;;5.28;;
43226;SDS011;28839;52.404;9.808;2024-01-27T13:12:50;21.35;;;4.85;;
43226;SDS011;28839;52.404;9.808;2024-01-27T13:26:38;21.20;;;4.85;;
43226;SDS011;28839;52.404;9.808;2024-01-27T13:33:33;18.37;;;4.85;;
43226;SDS011;28839;52.404;9.808;2024-01-27T13:45:49;18.40;;;6.05;;
43226;SDS011;28839;52.404;9.808;2024-01-27T13:52:43;17.25;;;4.80;;
43226;SDS011;28839;52.404;9.808;2024-01-27T13:59:37;18.25;;;4.72;;
43226;SDS011;28839;52.404;9.808;2024-01-27T14:06:33;11.57;;;4.12;;
43226;SDS011;28839;52.404;9.808;2024-01-27T14:13:26;20.25;;;4.80;;
43226;SDS011;28839;52.404;9.808;2024-01-27T14:20:20;13.57;;;4.28;;
43226;SDS011;28839;52.404;9.808;2024-01-27T14:27:15;18.52;;;4.78;;
43226;SDS011;28839;52.404;9.808;2024-01-27T14:34:12;21.65;;;4.90;;
43226;SDS011;28839;52.404;9.808;2024-01-27T14:41:06;17.20;;;4.53;;
43226;SDS011;28839;52.404;9.808;2024-01-27T14:48:01;18.12;;;3.87;;
43226;SDS011;28839;52.404;9.808;2024-01-27T14:54:56;14.90;;;3.95;;
43226;SDS011;28839;52.404;9.808;2024-01-27T15:01:50;14.23;;;5.03;;
43226;SDS011;28839;52.404;9.808;2024-01-27T15:08:45;18.10;;;4.95;;
43226;SDS011;28839;52.404;9.808;2024-01-27T15:15:39;17.35;;;5.18;;
43226;SDS011;28839;52.404;9.808;2024-01-27T15:22:33;15.23;;;4.60;;
43226;SDS011;28839;52.404;9.808;2024-01-27T15:29:28;15.68;;;3.85;;
43226;SDS011;28839;52.404;9.808;2024-01-27T15:36:22;22.10;;;5.28;;
43226;SDS011;28839;52.404;9.808;2024-01-27T15:43:16;18.98;;;4.07;;
43226;SDS011;28839;52.404;9.808;2024-01-27T15:50:11;14.70;;;4.87;;
43226;SDS011;28839;52.404;9.808;2024-01-27T15:57:05;14.15;;;4.28;;
43226;SDS011;28839;52.404;9.808;2024-01-27T16:03:59;17.48;;;4.57;;
43226;SDS011;28839;52.404;9.808;2024-01-27T16:10:54;19.55;;;4.35;;
43226;SDS011;28839;52.404;9.808;2024-01-27T16:24:42;18.52;;;4.05;;
43226;SDS011;28839;52.404;9.808;2024-01-27T16:31:37;16.50;;;5.55;;
43226;SDS011;28839;52.404;9.808;2024-01-27T16:38:31;16.77;;;4.22;;
43226;SDS011;28839;52.404;9.808;2024-01-27T16:45:26;14.35;;;5.05;;
43226;SDS011;28839;52.404;9.808;2024-01-27T16:52:26;21.05;;;7.43;;
43226;SDS011;28839;52.404;9.808;2024-01-27T16:59:23;17.65;;;5.32;;
43226;SDS011;28839;52.404;9.808;2024-01-27T17:06:17;20.85;;;5.82;;
43226;SDS011;28839;52.404;9.808;2024-01-27T17:13:13;16.92;;;5.93;;
43226;SDS011;28839;52.404;9.808;2024-01-27T17:20:08;19.60;;;5.70;;
43226;SDS011;28839;52.404;9.808;2024-01-27T17:27:02;21.80;;;7.87;;
43226;SDS011;28839;52.404;9.808;2024-01-27T17:33:57;21.00;;;7.60;;
43226;SDS011;28839;52.404;9.808;2024-01-27T17:40:51;21.90;;;5.95;;
43226;SDS011;28839;52.404;9.808;2024-01-27T17:47:45;22.90;;;7.70;;
43226;SDS011;28839;52.404;9.808;2024-01-27T17:54:42;25.65;;;10.27;;
43226;SDS011;28839;52.404;9.808;2024-01-27T18:01:36;26.17;;;9.05;;
43226;SDS011;28839;52.404;9.808;2024-01-27T18:08:30;23.55;;;6.60;;
43226;SDS011;28839;52.404;9.808;2024-01-27T18:15:25;19.48;;;6.32;;
43226;SDS011;28839;52.404;9.808;2024-01-27T18:22:18;26.67;;;10.30;;
43226;SDS011;28839;52.404;9.808;2024-01-27T18:29:12;17.67;;;6.60;;
43226;SDS011;28839;52.404;9.808;2024-01-27T18:36:08;30.50;;;13.13;;
43226;SDS011;28839;52.404;9.808;2024-01-27T18:43:03;27.20;;;12.68;;
43226;SDS011;28839;52.404;9.808;2024-01-27T18:49:57;25.30;;;9.55;;
43226;SDS011;28839;52.404;9.808;2024-01-27T18:56:53;25.20;;;8.57;;
43226;SDS011;28839;52.404;9.808;2024-01-27T19:03:47;22.65;;;8.27;;
43226;SDS011;28839;52.404;9.808;2024-01-27T19:10:41;31.87;;;8.13;;
43226;SDS011;28839;52.404;9.808;2024-01-27T19:17:38;25.00;;;9.93;;
43226;SDS011;28839;52.404;9.808;2024-01-27T19:31:27;26.25;;;10.30;;
43226;SDS011;28839;52.404;9.808;2024-01-27T19:38:26;18.35;;;7.82;;
43226;SDS011;28839;52.404;9.808;2024-01-27T19:45:19;21.08;;;7.82;;
43226;SDS011;28839;52.404;9.808;2024-01-27T19:52:13;19.62;;;7.78;;
43226;SDS011;28839;52.404;9.808;2024-01-27T19:59:10;20.58;;;9.18;;
43226;SDS011;28839;52.404;9.808;2024-01-27T20:12:57;20.15;;;7.60;;
43226;SDS011;28839;52.404;9.808;2024-01-27T20:19:53;21.02;;;8.98;;
43226;SDS011;28839;52.404;9.808;2024-01-27T20:26:47;27.62;;;9.93;;
43226;SDS011;28839;52.404;9.808;2024-01-27T20:33:41;22.67;;;8.90;;
43226;SDS011;28839;52.404;9.808;2024-01-27T20:40:36;21.90;;;8.93;;
43226;SDS011;28839;52.404;9.808;2024-01-27T20:47:30;22.40;;;9.48;;
43226;SDS011;28839;52.404;9.808;2024-01-27T20:54:24;27.60;;;9.55;;
43226;SDS011;28839;52.404;9.808;2024-01-27T21:01:19;23.87;;;7.77;;
43226;SDS011;28839;52.404;9.808;2024-01-27T21:08:14;20.00;;;8.43;;
43226;SDS011;28839;52.404;9.808;2024-01-27T21:15:08;24.20;;;9.90;;
43226;SDS011;28839;52.404;9.808;2024-01-27T21:22:03;19.87;;;10.38;;
43226;SDS011;28839;52.404;9.808;2024-01-27T21:28:57;21.52;;;10.10;;
43226;SDS011;28839;52.404;9.808;2024-01-27T21:35:51;25.77;;;10.88;;
43226;SDS011;28839;52.404;9.808;2024-01-27T21:42:46;20.95;;;9.30;;
43226;SDS011;28839;52.404;9.808;2024-01-27T21:49:40;18.95;;;8.15;;
43226;SDS011;28839;52.404;9.808;2024-01-27T21:56:33;24.35;;;8.95;;
43226;SDS011;28839;52.404;9.808;2024-01-27T22:03:29;20.67;;;8.40;;
43226;SDS011;28839;52.404;9.808;2024-01-27T22:10:28;21.60;;;8.18;;
43226;SDS011;28839;52.404;9.808;2024-01-27T22:17:22;19.73;;;8.57;;
43226;SDS011;28839;52.404;9.808;2024-01-27T22:24:17;27.30;;;10.77;;
43226;SDS011;28839;52.404;9.808;2024-01-27T22:31:11;18.40;;;9.48;;
43226;SDS011;28839;52.404;9.808;2024-01-27T22:38:04;35.80;;;12.20;;
43226;SDS011;28839;52.404;9.808;2024-01-27T22:45:00;20.35;;;11.88;;
43226;SDS011;28839;52.404;9.808;2024-01-27T22:51:54;54.85;;;23.52;;
43226;SDS011;28839;52.404;9.808;2024-01-27T22:58:47;39.72;;;19.92;;
43226;SDS011;28839;52.404;9.808;2024-01-27T23:05:43;45.05;;;22.05;;
43226;SDS011;28839;52.404;9.808;2024-01-27T23:12:36;50.33;;;23.92;;
43226;SDS011;28839;52.404;9.808;2024-01-27T23:19:30;51.13;;;22.00;;
43226;SDS011;28839;52.404;9.808;2024-01-27T23:26:25;45.30;;;19.53;;
43226;SDS011;28839;52.404;9.808;2024-01-27T23:33:20;33.63;;;14.95;;
43226;SDS011;28839;52.404;9.808;2024-01-27T23:40:14;30.12;;;11.85;;
43226;SDS011;28839;52.404;9.808;2024-01-27T23:47:09;33.28;;;11.05;;
43226;SDS011;28839;52.404;9.808;2024-01-27T23:54:03;22.70;;;8.73;;
